Time;durP1;ratioP1;P1;durP2;ratioP2;P2;SDS_P1;SDS_P2;PMS_P1;PMS_P2;Temp;Humidity;BMP_temperature;BMP_pressure;BME280_temperature;BME280_humidity;BME280_pressure;Samples;Min_cycle;Max_cycle;Signal;HPM_P1;HPM_P2
2022/05/09 00:00:28;;;;;;;10.85;9.75;;;15.00;99.90;;;;;;5055745;28;20207;-69
2022/05/09 00:02:55;;;;;;;15.52;11.32;;;15.00;99.90;;;;;;5055390;28;20201;-69
2022/05/09 00:05:24;;;;;;;11.85;10.65;;;14.90;99.90;;;;;;5055305;28;20235;-69
2022/05/09 00:07:52;;;;;;;11.68;10.55;;;14.80;99.90;;;;;;5055743;28;20259;-69
2022/05/09 00:10:22;;;;;;;13.38;11.10;;;14.80;99.90;;;;;;5055619;28;20296;-69
2022/05/09 00:12:49;;;;;;;12.55;11.13;;;14.80;99.90;;;;;;5055862;28;20292;-69
2022/05/09 00:15:17;;;;;;;13.10;11.73;;;14.80;99.90;;;;;;5055667;28;20335;-69
2022/05/09 00:17:45;;;;;;;14.32;12.15;;;14.70;99.90;;;;;;5055361;28;20232;-69
2022/05/09 00:20:13;;;;;;;13.50;12.10;;;14.70;99.90;;;;;;5055433;28;20210;-69
2022/05/09 00:22:45;;;;;;;14.50;12.90;;;14.60;99.90;;;;;;5055111;28;20320;-69
2022/05/09 00:25:13;;;;;;;15.60;13.05;;;14.50;99.90;;;;;;5055311;28;20307;-69
2022/05/09 00:27:40;;;;;;;12.82;11.52;;;14.50;99.90;;;;;;5055244;28;20231;-69
2022/05/09 00:30:08;;;;;;;13.20;11.80;;;14.50;99.90;;;;;;5055207;28;20574;-69
2022/05/09 00:32:35;;;;;;;12.23;10.93;;;14.50;99.90;;;;;;5054901;28;20295;-69
2022/05/09 00:35:01;;;;;;;13.60;11.52;;;14.50;99.90;;;;;;5055610;28;20314;-69
2022/05/09 00:37:28;;;;;;;13.80;11.27;;;14.50;99.90;;;;;;5054982;28;20231;-70
2022/05/09 00:39:55;;;;;;;14.63;13.13;;;14.40;99.90;;;;;;5055028;28;20220;-70
2022/05/09 00:42:23;;;;;;;14.63;12.35;;;14.30;99.90;;;;;;5054533;28;20688;-70
2022/05/09 00:44:50;;;;;;;16.25;12.77;;;14.30;99.90;;;;;;5054933;28;20226;-70
2022/05/09 00:47:18;;;;;;;15.30;13.05;;;14.40;99.90;;;;;;5054842;28;20209;-70
2022/05/09 00:49:49;;;;;;;14.48;12.35;;;14.40;99.90;;;;;;5054697;28;20759;-70
2022/05/09 00:52:22;;;;;;;13.68;12.27;;;14.40;99.90;;;;;;5054578;28;20250;-69
2022/05/09 00:54:52;;;;;;;14.55;11.32;;;14.40;99.90;;;;;;5054465;28;20227;-69
2022/05/09 00:57:24;;;;;;;13.32;11.93;;;14.40;99.90;;;;;;5054707;28;20232;-69
2022/05/09 00:59:55;;;;;;;14.25;11.73;;;14.40;99.90;;;;;;5054608;28;20208;-69
2022/05/09 01:02:22;;;;;;;14.13;11.75;;;14.20;99.90;;;;;;5054404;28;20569;-69
2022/05/09 01:04:53;;;;;;;15.50;12.88;;;14.20;99.90;;;;;;5054525;28;20224;-69
2022/05/09 01:07:20;;;;;;;14.20;12.70;;;14.20;99.90;;;;;;5054583;28;20290;-69
2022/05/09 01:09:47;;;;;;;14.02;12.45;;;14.30;99.90;;;;;;5054419;28;20617;-69
2022/05/09 01:12:20;;;;;;;14.20;12.32;;;14.40;99.90;;;;;;5054204;28;20199;-69
2022/05/09 01:14:49;;;;;;;15.35;12.90;;;14.30;99.90;;;;;;5054284;28;20245;-69
2022/05/09 01:17:17;;;;;;;16.27;12.10;;;14.30;99.90;;;;;;5053686;28;20224;-69
2022/05/09 01:19:45;;;;;;;15.02;12.95;;;14.30;99.90;;;;;;5054069;28;20212;-69
2022/05/09 01:22:23;;;;;;;13.32;11.82;;;14.30;99.90;;;;;;5054119;28;20231;-69
2022/05/09 01:24:50;;;;;;;13.68;11.95;;;14.40;99.90;;;;;;5054121;28;20234;-69
2022/05/09 01:27:17;;;;;;;13.38;11.85;;;14.30;99.90;;;;;;5054108;28;20199;-69
2022/05/09 01:29:52;;;;;;;16.23;12.40;;;14.30;99.90;;;;;;5053863;28;20249;-69
2022/05/09 01:32:26;;;;;;;15.10;12.90;;;14.30;99.90;;;;;;5053863;28;20260;-69
2022/05/09 01:34:59;;;;;;;12.63;11.13;;;14.10;99.90;;;;;;5053699;28;20227;-69
2022/05/09 01:37:29;;;;;;;14.48;12.98;;;14.10;99.90;;;;;;5053957;28;20220;-69
2022/05/09 01:39:56;;;;;;;14.93;12.70;;;14.00;99.90;;;;;;5053942;28;20203;-69
2022/05/09 01:42:24;;;;;;;14.30;12.80;;;13.90;99.90;;;;;;5053752;28;20208;-69
2022/05/09 01:44:51;;;;;;;14.77;12.63;;;13.90;99.90;;;;;;5053814;28;20249;-69
2022/05/09 01:50:02;;;;;;;15.20;12.00;;;13.80;99.90;;;;;;5053868;28;20202;-69
2022/05/09 01:52:30;;;;;;;13.50;12.10;;;13.70;99.90;;;;;;5053615;28;20546;-69
2022/05/09 01:54:57;;;;;;;14.23;12.23;;;13.70;99.90;;;;;;5053268;28;20318;-69
2022/05/09 01:57:24;;;;;;;17.45;13.77;;;13.60;99.90;;;;;;5053406;28;20230;-69
2022/05/09 01:59:51;;;;;;;15.18;12.93;;;13.70;99.90;;;;;;5053716;28;20203;-69
2022/05/09 02:02:21;;;;;;;16.65;12.10;;;13.70;99.90;;;;;;5053412;28;20290;-69
2022/05/09 02:04:47;;;;;;;15.20;12.70;;;13.70;99.90;;;;;;5053540;28;20218;-69
2022/05/09 02:07:17;;;;;;;14.45;12.27;;;13.70;99.90;;;;;;5053524;28;20203;-69
2022/05/09 02:09:47;;;;;;;17.67;12.63;;;13.70;99.90;;;;;;5053579;28;20213;-69
2022/05/09 02:12:15;;;;;;;15.38;12.18;;;13.70;99.90;;;;;;5053195;28;20213;-69
2022/05/09 02:14:43;;;;;;;16.30;12.80;;;13.80;99.90;;;;;;5053246;28;20219;-69
2022/05/09 02:17:11;;;;;;;13.70;11.80;;;13.80;99.90;;;;;;5053084;28;20219;-69
2022/05/09 02:19:39;;;;;;;16.30;12.70;;;13.80;99.90;;;;;;5053418;28;20245;-69
2022/05/09 02:22:06;;;;;;;15.57;12.05;;;13.70;99.90;;;;;;5053277;28;20569;-70
2022/05/09 02:24:33;;;;;;;15.70;12.30;;;13.80;99.90;;;;;;5053369;28;20651;-69
2022/05/09 02:27:03;;;;;;;13.88;12.40;;;13.90;99.90;;;;;;5053387;28;20286;-69
2022/05/09 02:29:31;;;;;;;14.07;12.57;;;13.80;99.90;;;;;;5056909;28;20760;-69
2022/05/09 02:31:59;;;;;;;16.75;12.00;;;13.70;99.90;;;;;;5057366;28;20661;-69
2022/05/09 02:34:26;;;;;;;13.65;12.18;;;13.70;99.90;;;;;;5057191;28;20258;-69
2022/05/09 02:36:53;;;;;;;14.05;12.45;;;13.60;99.90;;;;;;5057264;28;20209;-69
2022/05/09 02:39:19;;;;;;;16.05;12.45;;;13.70;99.90;;;;;;5057274;28;20205;-69
2022/05/09 02:41:46;;;;;;;13.40;11.48;;;13.60;99.90;;;;;;5057236;28;20213;-69
2022/05/09 02:44:15;;;;;;;14.65;11.55;;;13.60;99.90;;;;;;5056952;28;20219;-69
2022/05/09 02:46:42;;;;;;;14.60;12.85;;;13.60;99.90;;;;;;5057335;28;20290;-69
2022/05/09 02:49:09;;;;;;;15.07;11.98;;;13.60;99.90;;;;;;5057125;28;20291;-69
2022/05/09 02:51:35;;;;;;;14.30;12.07;;;13.60;99.90;;;;;;5057131;28;20213;-69
2022/05/09 02:54:02;;;;;;;17.38;12.82;;;13.60;99.90;;;;;;5056780;28;20235;-69
2022/05/09 02:56:29;;;;;;;16.95;13.23;;;13.60;99.90;;;;;;5057169;28;20560;-69
2022/05/09 02:58:56;;;;;;;13.50;12.10;;;13.60;99.90;;;;;;5056806;28;20256;-69
2022/05/09 03:01:24;;;;;;;13.77;11.90;;;13.70;99.90;;;;;;5056668;28;20239;-69
2022/05/09 03:06:35;;;;;;;14.02;12.43;;;13.60;99.90;;;;;;5056755;28;20273;-69
2022/05/09 03:09:02;;;;;;;14.27;12.05;;;13.70;99.90;;;;;;5056665;28;20600;-69
2022/05/09 03:11:30;;;;;;;14.55;13.02;;;13.60;99.90;;;;;;5056685;28;20291;-69
2022/05/09 03:13:57;;;;;;;15.30;12.98;;;13.60;99.90;;;;;;5056083;28;20735;-69
2022/05/09 03:16:25;;;;;;;14.43;13.00;;;13.40;99.90;;;;;;5056666;28;20210;-69
2022/05/09 03:18:52;;;;;;;14.88;13.00;;;13.40;99.90;;;;;;5056504;28;20231;-69
2022/05/09 03:21:19;;;;;;;15.13;12.82;;;13.30;99.90;;;;;;5056537;28;20207;-69
2022/05/09 03:23:46;;;;;;;15.93;13.93;;;13.20;99.90;;;;;;5056021;28;20234;-69
2022/05/09 03:26:14;;;;;;;16.05;13.07;;;13.10;99.90;;;;;;5056248;28;20199;-69
2022/05/09 03:28:41;;;;;;;13.90;12.50;;;13.20;99.90;;;;;;5056384;28;20269;-69
2022/05/09 03:31:09;;;;;;;15.15;12.43;;;13.20;99.90;;;;;;5056307;28;20208;-69
2022/05/09 03:33:39;;;;;;;15.00;12.10;;;13.20;99.90;;;;;;5056121;28;20581;-69
2022/05/09 03:36:06;;;;;;;15.07;13.18;;;13.20;99.90;;;;;;5056368;28;20204;-69
2022/05/09 03:38:33;;;;;;;15.43;13.00;;;13.20;99.90;;;;;;5055516;28;20255;-69
2022/05/09 03:41:00;;;;;;;15.30;13.70;;;13.20;99.90;;;;;;5055936;28;20207;-69
2022/05/09 03:43:27;;;;;;;15.10;13.35;;;13.20;99.90;;;;;;5055909;28;20665;-69
2022/05/09 03:45:54;;;;;;;15.52;12.32;;;13.30;99.90;;;;;;5056107;28;20293;-69
2022/05/09 03:48:21;;;;;;;17.13;14.48;;;13.30;99.90;;;;;;5056042;28;20557;-69
2022/05/09 03:50:49;;;;;;;15.07;13.00;;;13.30;99.90;;;;;;5055942;28;20203;-69
2022/05/09 03:53:16;;;;;;;16.15;13.43;;;13.40;99.90;;;;;;5055450;28;20218;-69
2022/05/09 03:55:43;;;;;;;14.60;13.00;;;13.40;99.90;;;;;;5055531;28;20620;-69
2022/05/09 03:58:10;;;;;;;14.68;12.68;;;13.40;99.90;;;;;;5055680;28;20229;-69
2022/05/09 04:00:37;;;;;;;13.88;12.20;;;13.50;99.90;;;;;;5055671;28;20298;-69
2022/05/09 04:03:06;;;;;;;15.52;11.90;;;13.50;99.90;;;;;;5055469;28;20298;-69
2022/05/09 04:05:35;;;;;;;15.77;12.38;;;13.40;99.90;;;;;;5055585;28;20223;-69
2022/05/09 04:08:07;;;;;;;15.45;12.70;;;13.40;99.90;;;;;;5055648;28;20329;-69
2022/05/09 04:10:36;;;;;;;16.88;12.93;;;13.50;99.90;;;;;;5055687;28;20210;-69
2022/05/09 04:13:03;;;;;;;14.60;11.50;;;13.50;99.90;;;;;;5055296;28;20303;-69
2022/05/09 04:18:17;;;;;;;16.10;13.35;;;13.30;99.90;;;;;;5055730;28;20231;-69
2022/05/09 04:20:45;;;;;;;15.90;13.32;;;13.30;99.90;;;;;;5055496;28;20250;-69
2022/05/09 04:23:13;;;;;;;15.25;12.85;;;13.30;99.90;;;;;;5055201;28;20249;-69
2022/05/09 04:25:40;;;;;;;13.88;12.27;;;13.40;99.90;;;;;;5054960;28;20724;-69
2022/05/09 04:28:09;;;;;;;14.50;12.70;;;13.40;99.90;;;;;;5055452;28;20203;-69
2022/05/09 04:30:38;;;;;;;16.50;12.60;;;13.40;99.90;;;;;;5055098;28;20688;-69
2022/05/09 04:33:07;;;;;;;15.30;13.52;;;13.40;99.90;;;;;;5055019;28;20231;-69
2022/05/09 04:35:34;;;;;;;16.83;13.82;;;13.20;99.90;;;;;;5055192;28;20224;-69
2022/05/09 04:38:02;;;;;;;14.60;12.50;;;13.20;99.90;;;;;;5055037;28;20233;-69
2022/05/09 04:40:32;;;;;;;16.08;13.65;;;13.30;99.90;;;;;;5054972;28;20294;-69
2022/05/09 04:43:00;;;;;;;15.52;13.82;;;13.40;99.90;;;;;;5054717;28;20210;-69
2022/05/09 04:45:28;;;;;;;16.48;12.73;;;13.40;99.90;;;;;;5054821;28;20318;-69
2022/05/09 04:47:55;;;;;;;16.50;14.13;;;13.50;99.90;;;;;;5054890;28;20310;-69
2022/05/09 04:50:24;;;;;;;14.95;13.13;;;13.50;99.90;;;;;;5053800;28;20218;-69
2022/05/09 04:52:51;;;;;;;15.70;14.02;;;13.50;99.90;;;;;;5054544;28;20214;-69
2022/05/09 04:55:19;;;;;;;15.85;13.60;;;13.50;99.90;;;;;;5054406;28;20593;-69
2022/05/09 04:57:49;;;;;;;15.50;13.65;;;13.60;99.90;;;;;;5054485;28;20435;-69
2022/05/09 05:00:19;;;;;;;19.63;14.50;;;13.50;99.90;;;;;;5054671;28;20226;-69
2022/05/09 05:02:46;;;;;;;15.55;13.85;;;13.30;99.90;;;;;;5054442;28;20293;-69
2022/05/09 05:05:13;;;;;;;17.30;14.35;;;13.20;99.90;;;;;;5054594;28;20223;-69
2022/05/09 05:07:39;;;;;;;18.38;15.02;;;13.20;99.90;;;;;;5054485;28;20209;-69
2022/05/09 05:10:08;;;;;;;16.95;14.48;;;13.30;99.90;;;;;;5054389;28;20213;-69
2022/05/09 05:12:35;;;;;;;17.90;14.50;;;13.30;99.90;;;;;;5054028;28;20289;-69
2022/05/09 05:15:04;;;;;;;18.33;14.85;;;13.40;99.90;;;;;;5054379;28;20234;-69
2022/05/09 05:17:31;;;;;;;17.48;15.05;;;13.50;99.90;;;;;;5054178;28;20298;-69
2022/05/09 05:19:58;;;;;;;17.33;15.20;;;13.50;99.90;;;;;;5054236;28;20290;-69
2022/05/09 05:22:24;;;;;;;21.77;16.45;;;13.60;99.90;;;;;;5053914;28;20229;-69
2022/05/09 05:24:53;;;;;;;19.67;15.90;;;13.60;99.90;;;;;;5053961;28;20219;-69
2022/05/09 05:27:22;;;;;;;20.30;16.50;;;13.50;99.90;;;;;;5054096;28;20227;-69
2022/05/09 05:29:49;;;;;;;19.13;16.50;;;13.50;99.90;;;;;;5054110;28;20207;-69
2022/05/09 05:32:20;;;;;;;21.55;16.45;;;13.40;99.90;;;;;;5053889;28;20615;-69
2022/05/09 05:34:47;;;;;;;20.60;16.85;;;13.40;99.90;;;;;;5054111;28;20656;-69
2022/05/09 05:37:15;;;;;;;22.80;16.75;;;13.40;99.90;;;;;;5053996;28;20203;-69
2022/05/09 05:39:43;;;;;;;22.98;17.80;;;13.40;99.90;;;;;;5053917;28;20314;-69
2022/05/09 05:42:11;;;;;;;20.88;17.70;;;13.40;99.90;;;;;;5053787;28;20564;-69
2022/05/09 05:44:38;;;;;;;22.48;17.52;;;13.40;99.90;;;;;;5053823;28;20310;-69
2022/05/09 05:47:06;;;;;;;22.30;17.58;;;13.50;99.90;;;;;;5053746;28;20665;-69
2022/05/09 05:49:35;;;;;;;18.40;16.40;;;13.50;99.90;;;;;;5053837;28;20210;-69
2022/05/09 05:52:03;;;;;;;21.10;16.77;;;13.60;99.90;;;;;;5053694;28;20210;-70
2022/05/09 05:54:31;;;;;;;20.30;17.30;;;13.60;99.90;;;;;;5053397;28;20238;-70
2022/05/09 05:56:58;;;;;;;21.20;17.42;;;13.70;99.90;;;;;;5053690;28;20234;-69
2022/05/09 05:59:26;;;;;;;23.33;17.30;;;13.70;99.90;;;;;;5053618;28;20227;-69
2022/05/09 06:01:53;;;;;;;19.02;16.38;;;13.80;99.90;;;;;;5053419;28;20539;-69
2022/05/09 06:04:20;;;;;;;19.95;16.50;;;13.90;99.90;;;;;;5053307;28;20226;-69
2022/05/09 06:06:48;;;;;;;20.77;16.15;;;13.90;99.90;;;;;;5053293;28;20294;-69
2022/05/09 06:09:16;;;;;;;17.95;14.73;;;14.00;99.90;;;;;;5053550;28;20204;-69
2022/05/09 06:11:44;;;;;;;17.67;15.10;;;14.10;99.90;;;;;;5053531;28;20199;-69
2022/05/09 06:14:12;;;;;;;20.60;16.70;;;14.10;99.90;;;;;;5053107;28;20223;-69
2022/05/09 06:16:40;;;;;;;18.25;16.35;;;14.10;99.90;;;;;;5053498;28;20205;-69
2022/05/09 06:19:09;;;;;;;17.90;15.80;;;14.20;99.90;;;;;;5053337;28;20224;-69
2022/05/09 06:21:37;;;;;;;19.52;16.48;;;14.10;99.90;;;;;;5053418;28;20230;-69
2022/05/09 06:24:07;;;;;;;19.10;15.90;;;13.90;99.90;;;;;;5053115;28;20776;-69
2022/05/09 06:26:35;;;;;;;18.60;15.85;;;13.80;99.90;;;;;;5053466;28;20572;-69
2022/05/09 06:29:06;;;;;;;22.60;15.75;;;13.80;99.90;;;;;;5053377;28;20195;-69
2022/05/09 06:31:34;;;;;;;21.33;16.70;;;13.80;99.90;;;;;;5053449;28;20217;-69
2022/05/09 06:34:00;;;;;;;21.23;17.25;;;13.70;99.90;;;;;;5052818;28;20709;-69
2022/05/09 06:36:27;;;;;;;19.25;15.90;;;13.70;99.90;;;;;;5053223;28;20295;-69
2022/05/09 06:38:56;;;;;;;20.92;16.85;;;13.90;99.90;;;;;;5053220;28;20234;-69
2022/05/09 06:41:25;;;;;;;17.85;15.95;;;13.90;99.90;;;;;;5053414;28;20203;-69
2022/05/09 06:43:52;;;;;;;19.60;16.95;;;13.90;99.90;;;;;;5052910;28;20594;-69
2022/05/09 06:46:19;;;;;;;19.52;17.08;;;14.00;99.90;;;;;;5053153;28;20212;-69
2022/05/09 06:48:46;;;;;;;20.02;16.20;;;14.00;99.90;;;;;;5053327;28;20655;-69
2022/05/09 06:51:13;;;;;;;19.55;16.08;;;14.10;99.90;;;;;;5053042;28;20661;-69
2022/05/09 06:53:40;;;;;;;18.33;15.98;;;14.20;99.90;;;;;;5052690;28;20231;-69
2022/05/09 06:56:08;;;;;;;17.58;15.07;;;14.40;99.90;;;;;;5053190;28;20207;-69
2022/05/09 06:58:36;;;;;;;18.23;14.45;;;14.40;99.90;;;;;;5052935;28;20258;-69
2022/05/09 07:01:13;;;;;;;17.85;15.85;;;14.60;99.90;;;;;;5052777;28;20214;-69
2022/05/09 07:03:40;;;;;;;18.20;15.77;;;14.50;99.90;;;;;;5052657;28;20646;-69
2022/05/09 07:06:06;;;;;;;17.55;15.15;;;14.60;99.90;;;;;;5053074;28;20206;-69
2022/05/09 07:08:34;;;;;;;18.08;15.73;;;14.60;99.90;;;;;;5052923;28;20203;-69
2022/05/09 07:11:01;;;;;;;18.90;15.82;;;14.60;99.90;;;;;;5052847;28;20211;-69
2022/05/09 07:13:28;;;;;;;17.50;14.77;;;14.80;99.90;;;;;;5052602;28;20217;-69
2022/05/09 07:15:57;;;;;;;18.20;14.93;;;15.00;99.90;;;;;;5056618;28;20205;-69
2022/05/09 07:18:26;;;;;;;16.05;14.35;;;15.20;99.90;;;;;;5056320;28;20214;-69
2022/05/09 07:20:52;;;;;;;14.10;12.63;;;15.20;99.90;;;;;;5056434;28;20205;-69
2022/05/09 07:23:19;;;;;;;16.40;14.75;;;15.40;99.90;;;;;;5056070;28;20667;-70
2022/05/09 07:25:46;;;;;;;15.57;13.98;;;15.50;99.90;;;;;;5056437;28;20205;-69
2022/05/09 07:28:16;;;;;;;16.60;14.20;;;15.40;99.90;;;;;;5056404;28;20208;-69
2022/05/09 07:30:43;;;;;;;15.45;13.27;;;15.50;99.90;;;;;;5056298;28;20218;-69
2022/05/09 07:33:14;;;;;;;14.35;12.95;;;15.60;99.90;;;;;;5056053;28;20206;-69
2022/05/09 07:35:41;;;;;;;13.60;12.20;;;15.60;99.90;;;;;;5056277;28;20266;-69
2022/05/09 07:38:08;;;;;;;15.02;13.43;;;15.70;99.90;;;;;;5056087;28;20233;-69
2022/05/09 07:40:35;;;;;;;14.43;12.93;;;15.80;99.90;;;;;;5056055;28;20584;-69
2022/05/09 07:43:03;;;;;;;14.52;12.70;;;15.80;99.90;;;;;;5055922;28;20576;-69
2022/05/09 07:45:30;;;;;;;14.73;13.35;;;16.00;99.90;;;;;;5056053;28;20222;-69
2022/05/09 07:47:57;;;;;;;14.13;12.73;;;16.10;99.90;;;;;;5055946;28;20729;-69
2022/05/09 07:50:26;;;;;;;13.25;12.05;;;16.30;99.90;;;;;;5055970;28;20206;-69
2022/05/09 07:52:53;;;;;;;14.15;12.75;;;16.50;99.90;;;;;;5055713;28;20550;-69
2022/05/09 07:55:19;;;;;;;14.50;12.93;;;16.60;99.90;;;;;;5055529;28;20242;-69
2022/05/09 07:57:46;;;;;;;14.05;12.57;;;16.80;99.90;;;;;;5055919;28;20331;-69
2022/05/09 08:00:14;;;;;;;14.38;12.65;;;17.00;99.90;;;;;;5055720;28;20314;-69
2022/05/09 08:02:41;;;;;;;14.02;12.63;;;17.20;99.90;;;;;;5055589;28;20257;-70
2022/05/09 08:05:10;;;;;;;14.15;12.68;;;17.30;99.90;;;;;;5055639;28;20230;-69
2022/05/09 08:07:39;;;;;;;13.25;11.95;;;17.70;99.90;;;;;;5056325;28;20211;-69
2022/05/09 08:10:08;;;;;;;13.10;11.85;;;18.00;99.90;;;;;;5055604;28;20202;-69
2022/05/09 08:12:34;;;;;;;13.70;12.30;;;18.10;99.90;;;;;;5055131;28;20661;-69
2022/05/09 08:15:01;;;;;;;12.35;11.25;;;18.40;99.90;;;;;;5055475;28;20589;-69
2022/05/09 08:17:28;;;;;;;13.00;11.80;;;19.10;99.90;;;;;;5055448;28;20210;-69
2022/05/09 08:19:55;;;;;;;11.80;10.70;;;20.20;99.90;;;;;;5055300;28;20521;-69
2022/05/09 08:22:23;;;;;;;12.50;11.30;;;21.80;99.90;;;;;;5055223;28;20537;-69
2022/05/09 08:24:51;;;;;;;11.40;10.40;;;22.80;96.90;;;;;;5055200;28;20568;-67
2022/05/09 08:27:18;;;;;;;13.03;11.93;;;24.00;93.70;;;;;;5055116;28;20448;-69
2022/05/09 08:29:45;;;;;;;11.60;10.43;;;24.60;90.60;;;;;;5055185;28;20449;-67
2022/05/09 08:32:12;;;;;;;11.27;10.27;;;26.40;83.80;;;;;;5054904;28;20441;-67
2022/05/09 08:34:39;;;;;;;10.80;9.97;;;27.50;77.40;;;;;;5055087;28;20466;-68
2022/05/09 08:37:06;;;;;;;10.90;10.00;;;27.30;72.80;;;;;;5055022;28;20441;-67
2022/05/09 08:39:32;;;;;;;11.33;10.33;;;27.70;69.70;;;;;;5054850;28;20478;-69
2022/05/09 08:42:03;;;;;;;10.90;10.00;;;27.30;68.40;;;;;;5055745;28;20468;-69
2022/05/09 08:45:05;;;;;;;11.80;10.80;;;25.90;72.60;;;;;;5054727;28;20526;-69
2022/05/09 08:47:49;;;;;;;10.57;9.77;;;24.40;78.40;;;;;;5044252;28;20454;-69
2022/05/09 08:50:25;;;;;;;10.47;9.57;;;23.30;83.60;;;;;;5054891;28;20445;-69
2022/05/09 08:52:59;;;;;;;11.30;10.37;;;24.20;83.50;;;;;;5054622;28;20457;-67
2022/05/09 08:55:28;;;;;;;10.90;10.00;;;25.20;79.80;;;;;;5054492;28;20551;-70
2022/05/09 08:58:00;;;;;;;10.97;10.00;;;26.30;77.10;;;;;;5054678;28;20445;-67
2022/05/09 09:00:29;;;;;;;10.67;9.83;;;27.60;71.50;;;;;;5054856;28;20599;-69
2022/05/09 09:03:01;;;;;;;11.03;10.03;;;27.60;68.20;;;;;;5054451;28;20440;-70
2022/05/09 09:05:34;;;;;;;10.13;9.37;;;28.10;66.50;;;;;;5054175;28;20484;-69
2022/05/09 09:08:21;;;;;;;11.03;9.90;;;28.40;64.20;;;;;;5054522;28;20537;-70
2022/05/09 09:10:57;;;;;;;10.83;9.93;;;29.10;64.10;;;;;;5054081;28;20445;-70
2022/05/09 09:13:42;;;;;;;9.83;9.03;;;29.90;59.90;;;;;;5054057;28;20862;-70
2022/05/09 09:16:22;;;;;;;10.30;9.50;;;31.70;56.70;;;;;;5054112;28;20524;-67
2022/05/09 09:19:13;;;;;;;9.60;8.90;;;31.20;54.40;;;;;;5054164;28;20630;-68
2022/05/09 09:21:48;;;;;;;10.93;10.13;;;31.30;54.50;;;;;;5054275;28;20528;-68
2022/05/09 09:24:29;;;;;;;9.27;8.57;;;32.30;52.30;;;;;;5053957;28;20493;-68
2022/05/09 09:27:03;;;;;;;10.60;9.80;;;33.00;51.10;;;;;;5053951;28;21123;-68
2022/05/09 09:29:35;;;;;;;10.20;9.40;;;33.50;48.30;;;;;;5053966;28;21000;-67
2022/05/09 09:32:06;;;;;;;9.30;8.60;;;31.90;50.10;;;;;;5054075;28;20445;-68
2022/05/09 09:34:38;;;;;;;9.30;8.60;;;32.00;51.40;;;;;;5053919;28;20828;-67
2022/05/09 09:37:11;;;;;;;9.53;8.80;;;31.80;50.30;;;;;;5053282;28;20923;-68
2022/05/09 09:39:38;;;;;;;9.40;8.70;;;32.00;50.80;;;;;;5053901;28;20480;-67
2022/05/09 09:42:05;;;;;;;10.13;9.40;;;31.20;51.60;;;;;;5053672;28;21007;-67
2022/05/09 09:44:38;;;;;;;9.67;8.97;;;31.20;52.90;;;;;;5053600;28;20548;-67
2022/05/09 09:47:12;;;;;;;9.43;8.73;;;31.70;50.90;;;;;;5053565;28;20489;-68
2022/05/09 09:49:41;;;;;;;9.83;9.03;;;31.70;51.30;;;;;;5053820;28;20441;-68
2022/05/09 09:52:21;;;;;;;8.67;8.07;;;31.90;51.20;;;;;;5053629;28;20786;-70
2022/05/09 09:54:56;;;;;;;9.07;8.47;;;32.00;52.00;;;;;;5053499;28;20551;-70
2022/05/09 09:57:28;;;;;;;9.20;8.50;;;32.30;50.30;;;;;;5053755;28;20781;-67
2022/05/09 09:59:57;;;;;;;9.00;8.30;;;31.50;48.80;;;;;;5053520;28;20527;-70
2022/05/09 10:02:26;;;;;;;8.53;7.83;;;30.80;51.10;;;;;;5053447;28;20938;-70
2022/05/09 10:04:55;;;;;;;8.97;8.37;;;31.70;50.90;;;;;;5053331;28;20473;-68
2022/05/09 10:07:31;;;;;;;8.50;7.90;;;32.00;48.10;;;;;;5053533;28;20453;-70
2022/05/09 10:10:10;;;;;;;9.00;8.30;;;32.30;47.80;;;;;;5053414;28;20919;-70
2022/05/09 10:12:38;;;;;;;8.67;8.07;;;32.80;46.20;;;;;;5053453;28;20438;-70
2022/05/09 10:15:26;;;;;;;8.60;8.03;;;33.60;46.40;;;;;;5053483;28;20504;-70
2022/05/09 10:17:53;;;;;;;9.03;8.43;;;34.60;43.60;;;;;;5053459;28;20442;-68
2022/05/09 10:20:34;;;;;;;8.20;7.60;;;34.30;43.80;;;;;;5053314;28;20477;-68
2022/05/09 10:26:05;;;;;;;8.77;8.20;;;34.20;43.90;;;;;;5053416;28;20773;-68
2022/05/09 10:28:36;;;;;;;8.80;8.07;;;34.40;42.30;;;;;;5053105;28;20449;-68
2022/05/09 10:31:17;;;;;;;8.87;8.23;;;33.60;43.30;;;;;;5053280;28;20947;-68
2022/05/09 10:33:50;;;;;;;8.50;7.87;;;31.80;45.30;;;;;;5052802;28;20473;-70
2022/05/09 10:36:23;;;;;;;8.87;8.17;;;30.50;48.50;;;;;;5053364;28;20431;-70
2022/05/09 10:38:54;;;;;;;8.53;7.90;;;29.60;49.20;;;;;;5053237;28;20443;-70
2022/05/09 10:41:29;;;;;;;8.57;7.97;;;28.40;49.90;;;;;;5053115;28;20489;-70
2022/05/09 10:44:00;;;;;;;8.37;7.77;;;28.20;51.80;;;;;;5052895;28;20470;-70
2022/05/09 10:46:40;;;;;;;8.87;8.27;;;28.10;52.50;;;;;;5052983;28;20450;-70
2022/05/09 10:49:13;;;;;;;8.23;7.63;;;27.90;53.20;;;;;;5054394;28;20861;-70
2022/05/09 10:51:48;;;;;;;8.67;8.00;;;28.10;54.90;;;;;;5057051;28;20448;-71
2022/05/09 10:54:22;;;;;;;8.73;8.13;;;28.60;53.70;;;;;;5056650;28;20483;-69
2022/05/09 10:56:55;;;;;;;8.43;7.83;;;28.80;53.10;;;;;;5056863;28;20442;-70
2022/05/09 10:59:27;;;;;;;7.73;7.13;;;29.00;51.70;;;;;;5056850;28;20448;-70
2022/05/09 11:02:00;;;;;;;8.40;7.80;;;28.80;51.10;;;;;;5056874;28;20458;-70
2022/05/09 11:04:27;;;;;;;8.73;8.10;;;28.10;50.90;;;;;;5056369;28;20469;-69
2022/05/09 11:07:06;;;;;;;8.10;7.60;;;27.10;52.80;;;;;;5056778;28;20464;-69
2022/05/09 11:09:59;;;;;;;9.17;8.37;;;26.50;54.80;;;;;;5056567;28;20502;-69
2022/05/09 11:12:43;;;;;;;8.50;7.80;;;26.20;55.80;;;;;;5056322;28;20446;-69
2022/05/09 11:15:17;;;;;;;8.47;7.53;;;26.00;56.20;;;;;;5056730;28;20479;-69
2022/05/09 11:17:56;;;;;;;8.33;7.70;;;26.00;55.60;;;;;;5056693;28;20441;-69
2022/05/09 11:20:32;;;;;;;8.20;7.50;;;25.80;56.30;;;;;;5056558;28;20477;-69
2022/05/09 11:23:18;;;;;;;8.60;7.87;;;26.00;59.00;;;;;;5056233;28;20459;-70
2022/05/09 11:26:03;;;;;;;8.53;7.93;;;25.90;59.00;;;;;;5056606;28;20513;-69
2022/05/09 11:29:09;;;;;;;7.77;7.17;;;26.00;58.20;;;;;;5056532;28;20932;-69
2022/05/09 11:31:48;;;;;;;7.73;7.03;;;26.30;56.90;;;;;;5044207;28;20437;-69
2022/05/09 11:34:30;;;;;;;7.87;7.17;;;26.40;55.50;;;;;;5055947;28;20468;-69
2022/05/09 11:37:08;;;;;;;9.13;8.33;;;26.50;55.60;;;;;;5056328;28;20444;-69
2022/05/09 11:39:45;;;;;;;8.10;7.40;;;26.30;55.70;;;;;;5056157;28;20445;-70
2022/05/09 11:45:18;;;;;;;14.20;12.90;;;25.60;60.10;;;;;;5033488;28;20446;-69
2022/05/09 11:47:53;;;;;;;9.93;9.03;;;25.40;60.30;;;;;;5056059;28;20495;-69
2022/05/09 11:50:32;;;;;;;9.03;8.33;;;25.40;61.00;;;;;;5056055;28;20448;-69
2022/05/09 11:53:03;;;;;;;8.80;8.10;;;25.30;59.30;;;;;;5055892;28;20932;-69
2022/05/09 11:55:30;;;;;;;9.00;8.23;;;25.20;64.00;;;;;;5055691;28;20843;-69
2022/05/09 11:58:00;;;;;;;8.37;7.67;;;25.20;61.40;;;;;;5055870;28;20441;-69
2022/05/09 12:01:00;;;;;;;8.20;7.50;;;25.30;61.50;;;;;;5055298;28;20930;-69
2022/05/09 12:04:03;;;;;;;9.20;8.40;;;25.50;59.40;;;;;;5055601;28;20448;-69
2022/05/09 12:06:50;;;;;;;9.13;8.43;;;25.60;57.60;;;;;;5055829;28;20457;-69
2022/05/09 12:09:51;;;;;;;8.80;8.10;;;25.60;59.80;;;;;;5055822;28;20526;-70
2022/05/09 12:12:44;;;;;;;8.30;7.67;;;25.60;60.00;;;;;;5055203;28;20542;-69
2022/05/09 12:15:33;;;;;;;8.00;7.40;;;25.90;57.10;;;;;;5055582;28;20476;-69
2022/05/09 12:18:20;;;;;;;7.90;7.30;;;26.00;57.60;;;;;;5055255;28;20457;-69
2022/05/09 12:21:18;;;;;;;8.23;7.43;;;25.80;57.30;;;;;;5048226;28;20485;-69
2022/05/09 12:24:25;;;;;;;8.50;7.80;;;25.60;57.50;;;;;;5032017;28;20552;-69
2022/05/09 12:26:54;;;;;;;8.67;7.87;;;25.60;56.80;;;;;;5055359;28;20445;-69
2022/05/09 12:29:52;;;;;;;7.73;7.13;;;25.80;57.80;;;;;;5055176;28;20449;-69
2022/05/09 12:32:20;;;;;;;8.80;8.10;;;25.80;58.20;;;;;;5055060;28;20444;-69
2022/05/09 12:34:48;;;;;;;8.60;8.00;;;25.70;58.20;;;;;;5055160;28;20465;-69
2022/05/09 12:37:24;;;;;;;7.90;7.23;;;25.80;57.80;;;;;;5055155;28;20444;-69
2022/05/09 12:39:54;;;;;;;7.77;7.17;;;26.00;57.20;;;;;;5055141;28;20473;-69
2022/05/09 12:42:45;;;;;;;7.67;7.07;;;26.10;56.50;;;;;;5054830;28;20870;-69
2022/05/09 12:45:13;;;;;;;7.90;7.30;;;26.20;56.50;;;;;;5055070;28;20549;-69
2022/05/09 12:47:41;;;;;;;8.57;7.87;;;26.20;57.30;;;;;;5054976;28;20438;-69
2022/05/09 12:50:12;;;;;;;9.20;8.40;;;26.20;57.40;;;;;;5054797;28;20440;-69
2022/05/09 12:52:43;;;;;;;8.17;7.57;;;26.30;57.70;;;;;;5054507;28;20469;-69
2022/05/09 12:57:57;;;;;;;8.10;7.50;;;26.70;55.60;;;;;;5054874;28;20421;-69
2022/05/09 13:00:27;;;;;;;8.40;7.80;;;26.80;55.50;;;;;;5054559;28;20478;-69
2022/05/09 13:02:54;;;;;;;8.60;8.00;;;26.90;55.60;;;;;;5054457;28;20446;-70
2022/05/09 13:05:34;;;;;;;8.70;8.00;;;27.00;55.00;;;;;;5054187;28;20474;-69
2022/05/09 13:08:04;;;;;;;8.37;7.67;;;26.90;55.40;;;;;;5054334;28;20512;-69